Time;durP1;ratioP1;P1;durP2;ratioP2;P2;SDS_P1;SDS_P2;PMS_P1;PMS_P2;Temp;Humidity;BMP_temperature;BMP_pressure;BME280_temperature;BME280_humidity;BME280_pressure;Samples;Min_cycle;Max_cycle;Signal;HPM_P1;HPM_P2
2023/10/22 00:01:15;;;;;;;3.85;0.90;;;13.50;99.90;;;;;;5134828;27;20482;-64
2023/10/22 00:03:41;;;;;;;3.38;0.80;;;13.50;99.90;;;;;;5103262;27;20394;-65
2023/10/22 00:06:07;;;;;;;4.10;0.63;;;13.50;99.90;;;;;;5106022;27;20632;-64
2023/10/22 00:08:32;;;;;;;4.22;0.57;;;13.60;99.90;;;;;;5136028;27;20477;-64
2023/10/22 00:10:58;;;;;;;6.63;0.75;;;13.60;99.90;;;;;;5102981;27;20059;-64
2023/10/22 00:13:24;;;;;;;2.20;0.40;;;13.50;99.90;;;;;;5102161;28;20039;-64
2023/10/22 00:15:49;;;;;;;5.28;1.75;;;13.60;99.90;;;;;;5103451;28;20547;-64
2023/10/22 00:18:15;;;;;;;3.92;1.42;;;13.70;99.90;;;;;;5098478;28;20032;-64
2023/10/22 00:20:41;;;;;;;4.50;0.70;;;13.60;99.90;;;;;;5102763;27;20113;-64
2023/10/22 00:23:07;;;;;;;4.90;0.90;;;13.50;99.90;;;;;;5103797;28;20031;-64
2023/10/22 00:25:36;;;;;;;3.00;0.50;;;13.50;99.90;;;;;;5102448;28;20042;-64
2023/10/22 00:28:03;;;;;;;3.30;0.80;;;13.50;99.90;;;;;;5099964;28;20042;-64
2023/10/22 00:30:30;;;;;;;4.53;0.75;;;13.50;99.90;;;;;;5103157;27;20127;-64
2023/10/22 00:32:56;;;;;;;3.05;0.63;;;13.50;99.90;;;;;;5101626;28;20467;-64
2023/10/22 00:35:21;;;;;;;6.18;0.93;;;13.50;99.90;;;;;;5104731;28;20040;-64
2023/10/22 00:37:47;;;;;;;1.88;0.50;;;13.50;99.90;;;;;;5102354;28;20142;-64
2023/10/22 00:40:14;;;;;;;4.25;0.52;;;13.60;99.90;;;;;;5104673;28;20032;-64
2023/10/22 00:42:39;;;;;;;3.00;0.25;;;13.50;99.90;;;;;;5101004;28;20067;-64
2023/10/22 00:45:06;;;;;;;4.88;0.43;;;13.70;99.90;;;;;;5104012;28;20482;-64
2023/10/22 00:47:33;;;;;;;1.95;0.38;;;13.50;99.90;;;;;;5102592;28;20039;-64
2023/10/22 00:49:59;;;;;;;5.07;0.30;;;13.50;99.90;;;;;;5103019;28;20084;-64
2023/10/22 00:52:26;;;;;;;3.05;0.43;;;13.50;99.90;;;;;;5104137;28;20600;-64
2023/10/22 00:54:52;;;;;;;2.30;0.32;;;13.40;99.90;;;;;;5101654;28;20051;-64
2023/10/22 00:57:19;;;;;;;3.28;0.40;;;13.40;99.90;;;;;;5107472;28;20430;-64
2023/10/22 00:59:45;;;;;;;1.98;0.28;;;13.40;99.90;;;;;;5101704;28;20062;-64
2023/10/22 01:02:11;;;;;;;3.83;0.40;;;13.30;99.90;;;;;;5107192;28;20068;-64
2023/10/22 01:04:37;;;;;;;2.60;0.40;;;13.30;99.90;;;;;;5109617;28;20042;-64
2023/10/22 01:07:05;;;;;;;5.95;1.02;;;13.20;99.90;;;;;;5101980;28;20027;-64
2023/10/22 01:09:30;;;;;;;4.60;0.47;;;13.20;99.90;;;;;;5099533;28;20441;-64
2023/10/22 01:12:00;;;;;;;2.85;0.40;;;13.20;99.90;;;;;;5101652;28;20113;-64
2023/10/22 01:14:26;;;;;;;3.25;0.30;;;13.10;99.90;;;;;;5105911;28;20470;-64
2023/10/22 01:16:52;;;;;;;3.97;0.30;;;13.10;99.90;;;;;;5105321;27;20093;-64
2023/10/22 01:19:17;;;;;;;1.88;0.28;;;13.00;99.90;;;;;;5103911;28;20051;-65
2023/10/22 01:21:43;;;;;;;2.35;0.50;;;12.90;99.90;;;;;;5104216;27;20027;-65
2023/10/22 01:24:09;;;;;;;2.75;0.82;;;12.90;99.90;;;;;;5106755;28;20040;-65
2023/10/22 01:26:43;;;;;;;4.50;0.40;;;12.80;99.90;;;;;;5136479;27;20067;-65
2023/10/22 01:29:10;;;;;;;1.77;0.38;;;12.90;99.90;;;;;;5104144;27;20040;-65
2023/10/22 01:31:36;;;;;;;4.22;0.40;;;12.70;99.90;;;;;;5106897;27;20411;-65
2023/10/22 01:34:02;;;;;;;6.00;0.50;;;12.60;99.90;;;;;;5140523;27;20100;-65
2023/10/22 01:36:28;;;;;;;2.75;0.35;;;12.60;99.90;;;;;;5105533;27;20043;-65
2023/10/22 01:38:54;;;;;;;2.85;0.45;;;12.60;99.90;;;;;;5103901;28;20043;-65
2023/10/22 01:41:19;;;;;;;3.75;0.75;;;12.50;99.90;;;;;;5104715;27;20044;-65
2023/10/22 01:43:45;;;;;;;3.75;0.93;;;12.50;99.90;;;;;;5104223;27;20117;-65
2023/10/22 01:46:11;;;;;;;3.60;0.45;;;12.40;99.90;;;;;;5104093;27;20043;-65
2023/10/22 01:48:38;;;;;;;5.65;0.50;;;12.40;99.90;;;;;;5100680;28;20032;-65
2023/10/22 01:51:04;;;;;;;3.28;0.52;;;12.40;99.90;;;;;;5103272;27;20036;-65
2023/10/22 01:53:30;;;;;;;3.42;0.47;;;12.50;99.90;;;;;;5103124;27;20121;-65
2023/10/22 01:55:56;;;;;;;4.03;0.82;;;12.40;99.90;;;;;;5101402;28;20046;-65
2023/10/22 01:58:21;;;;;;;3.85;0.30;;;12.30;99.90;;;;;;5103949;27;20038;-65
2023/10/22 02:00:48;;;;;;;3.88;0.50;;;12.20;99.90;;;;;;5136414;27;20460;-65
2023/10/22 02:03:14;;;;;;;1.73;0.40;;;12.30;99.90;;;;;;5103782;27;20482;-65
2023/10/22 02:05:40;;;;;;;3.28;0.30;;;12.30;99.90;;;;;;5101792;27;20134;-65
2023/10/22 02:08:06;;;;;;;4.28;0.90;;;12.30;99.90;;;;;;5103203;28;20237;-65
2023/10/22 02:10:32;;;;;;;1.20;0.25;;;12.30;99.90;;;;;;5101996;27;20084;-65
2023/10/22 02:12:58;;;;;;;1.83;0.50;;;12.30;99.90;;;;;;5105579;27;20051;-65
2023/10/22 02:15:26;;;;;;;2.83;0.73;;;12.30;99.90;;;;;;5109495;27;20032;-65
2023/10/22 02:17:52;;;;;;;3.83;0.50;;;12.20;99.90;;;;;;5102291;27;20047;-65
2023/10/22 02:20:18;;;;;;;2.72;0.57;;;12.10;99.90;;;;;;5104107;27;20470;-65
2023/10/22 02:22:44;;;;;;;1.55;0.30;;;12.20;99.90;;;;;;5101719;27;20061;-65
2023/10/22 02:25:09;;;;;;;2.65;0.90;;;12.20;99.90;;;;;;5106037;27;20042;-65
2023/10/22 02:27:35;;;;;;;1.45;0.28;;;12.20;99.90;;;;;;5104792;27;20027;-65
2023/10/22 02:30:00;;;;;;;3.10;0.52;;;12.20;99.90;;;;;;5106229;27;20039;-65
2023/10/22 02:32:26;;;;;;;2.83;0.35;;;12.10;99.90;;;;;;5104845;27;20044;-65
2023/10/22 02:34:52;;;;;;;2.10;0.75;;;12.10;99.90;;;;;;5105757;27;20039;-65
2023/10/22 02:37:19;;;;;;;3.47;0.70;;;12.10;99.90;;;;;;5137347;27;20036;-65
2023/10/22 02:39:45;;;;;;;5.22;1.08;;;12.00;99.90;;;;;;5104700;28;20440;-65
2023/10/22 02:42:11;;;;;;;2.95;0.60;;;12.00;99.90;;;;;;5100697;27;20032;-65
2023/10/22 02:44:36;;;;;;;5.78;0.70;;;12.00;99.90;;;;;;5105691;27;20042;-65
2023/10/22 02:47:02;;;;;;;2.75;0.40;;;12.00;99.90;;;;;;5100691;27;20448;-65
2023/10/22 02:49:30;;;;;;;2.65;0.60;;;11.90;99.90;;;;;;5105619;27;20084;-65
2023/10/22 02:51:55;;;;;;;7.57;1.70;;;11.90;99.90;;;;;;5101916;27;20054;-65
2023/10/22 02:54:21;;;;;;;3.08;0.40;;;11.90;99.90;;;;;;5104203;27;20478;-65
2023/10/22 02:56:47;;;;;;;9.55;1.58;;;12.00;99.90;;;;;;5101124;27;20042;-65
2023/10/22 02:59:13;;;;;;;3.75;0.70;;;11.90;99.90;;;;;;5103508;27;20043;-65
2023/10/22 03:01:38;;;;;;;3.72;0.57;;;11.90;99.90;;;;;;5103084;28;20486;-65
2023/10/22 03:04:04;;;;;;;6.72;0.90;;;11.90;99.90;;;;;;5102184;27;20089;-65
2023/10/22 03:06:29;;;;;;;2.70;0.70;;;11.90;99.90;;;;;;5109384;27;20052;-65
2023/10/22 03:08:55;;;;;;;6.20;1.17;;;12.00;99.90;;;;;;5102955;27;20028;-65
2023/10/22 03:11:21;;;;;;;2.10;0.43;;;12.00;99.90;;;;;;5105116;28;20035;-65
2023/10/22 03:13:48;;;;;;;2.17;0.70;;;12.00;99.90;;;;;;5133778;27;20036;-65
2023/10/22 03:16:17;;;;;;;4.47;0.40;;;12.00;99.90;;;;;;5101998;27;20079;-65
2023/10/22 03:18:44;;;;;;;3.45;0.80;;;12.00;99.90;;;;;;5101567;27;20040;-65
2023/10/22 03:21:16;;;;;;;3.35;0.60;;;12.10;99.90;;;;;;5104013;28;20043;-65
2023/10/22 03:23:42;;;;;;;4.55;0.50;;;12.00;99.90;;;;;;5107280;27;20384;-65
2023/10/22 03:26:13;;;;;;;3.55;0.50;;;12.00;99.90;;;;;;5106094;28;20036;-65
2023/10/22 03:28:39;;;;;;;3.58;1.40;;;12.00;99.90;;;;;;5087643;28;20131;-65
2023/10/22 03:31:05;;;;;;;2.17;0.50;;;12.00;99.90;;;;;;5109325;28;20077;-65
2023/10/22 03:33:31;;;;;;;5.40;0.65;;;12.00;99.90;;;;;;5104828;27;20047;-65
2023/10/22 03:35:58;;;;;;;4.20;0.85;;;12.10;99.90;;;;;;5102641;27;20036;-65
2023/10/22 03:38:25;;;;;;;4.60;0.60;;;12.00;99.90;;;;;;5102886;28;20039;-65
2023/10/22 03:41:02;;;;;;;2.40;0.40;;;12.10;99.90;;;;;;5101961;28;20043;-65
2023/10/22 03:43:28;;;;;;;6.40;0.88;;;12.10;99.90;;;;;;5102937;28;21284;-65
2023/10/22 03:45:57;;;;;;;2.30;0.43;;;12.10;99.90;;;;;;5102584;28;20055;-65
2023/10/22 03:48:24;;;;;;;1.42;0.50;;;12.10;99.90;;;;;;5105033;27;20047;-65
2023/10/22 03:50:50;;;;;;;3.85;0.50;;;12.00;99.90;;;;;;5105281;27;20068;-65
2023/10/22 03:53:15;;;;;;;4.05;0.70;;;12.00;99.90;;;;;;5102555;27;20031;-65
2023/10/22 03:55:41;;;;;;;1.80;0.50;;;12.10;99.90;;;;;;5104993;27;20035;-65
2023/10/22 03:58:07;;;;;;;1.60;0.40;;;12.00;99.90;;;;;;5116235;27;20035;-65
2023/10/22 04:00:33;;;;;;;1.60;0.40;;;12.00;99.90;;;;;;5103635;27;20408;-65
2023/10/22 04:03:00;;;;;;;2.45;0.40;;;12.00;99.90;;;;;;5102445;28;20035;-65
2023/10/22 04:05:26;;;;;;;2.25;0.60;;;12.10;99.90;;;;;;5103854;27;20101;-65
2023/10/22 04:07:52;;;;;;;1.77;0.60;;;12.10;99.90;;;;;;5133715;27;20432;-65
2023/10/22 04:10:17;;;;;;;2.63;0.60;;;12.00;99.90;;;;;;5105731;28;20046;-65
2023/10/22 04:12:43;;;;;;;2.47;0.88;;;12.00;99.90;;;;;;5102169;28;20055;-65
2023/10/22 04:15:09;;;;;;;2.17;0.70;;;12.00;99.90;;;;;;5104128;27;20051;-65
2023/10/22 04:17:35;;;;;;;2.60;0.77;;;12.00;99.90;;;;;;5102780;27;20063;-65
2023/10/22 04:20:01;;;;;;;2.58;0.77;;;12.00;99.90;;;;;;5101045;28;20469;-65
2023/10/22 04:22:26;;;;;;;1.27;0.63;;;12.10;99.90;;;;;;5104585;27;20493;-65
2023/10/22 04:24:52;;;;;;;1.17;0.43;;;12.00;99.90;;;;;;5102390;28;20084;-65
2023/10/22 04:27:18;;;;;;;3.08;0.70;;;12.10;99.90;;;;;;5105544;27;20034;-65
2023/10/22 04:29:46;;;;;;;1.73;0.73;;;12.00;99.90;;;;;;5102582;28;20122;-65
2023/10/22 04:32:12;;;;;;;2.45;0.80;;;12.10;99.90;;;;;;5100004;28;20048;-65
2023/10/22 04:34:39;;;;;;;1.33;0.60;;;12.00;99.90;;;;;;5102975;28;20043;-65
2023/10/22 04:37:06;;;;;;;1.42;1.08;;;12.10;99.90;;;;;;5102220;28;20078;-65
2023/10/22 04:39:32;;;;;;;3.03;0.80;;;12.10;99.90;;;;;;5103251;27;20069;-65
2023/10/22 04:41:57;;;;;;;2.75;0.60;;;12.10;99.90;;;;;;5102742;28;20044;-65
2023/10/22 04:44:23;;;;;;;2.33;1.05;;;12.00;99.90;;;;;;5101099;28;20036;-65
2023/10/22 04:46:51;;;;;;;2.67;0.90;;;12.10;99.90;;;;;;5103373;28;20035;-65
2023/10/22 04:49:16;;;;;;;1.10;0.60;;;12.10;99.90;;;;;;5105106;28;20155;-65
2023/10/22 04:51:42;;;;;;;4.82;0.95;;;12.10;99.90;;;;;;5101580;28;20150;-65
2023/10/22 04:54:08;;;;;;;2.95;0.60;;;12.10;99.90;;;;;;5132120;27;20047;-65
2023/10/22 04:56:34;;;;;;;0.80;0.70;;;12.10;99.90;;;;;;5134382;27;20402;-65
2023/10/22 04:59:00;;;;;;;1.85;0.80;;;12.20;99.90;;;;;;5102980;28;20067;-65
2023/10/22 05:01:25;;;;;;;2.03;0.85;;;12.10;99.90;;;;;;5105907;28;20059;-65
2023/10/22 05:03:51;;;;;;;3.50;0.90;;;12.10;99.90;;;;;;5102921;28;20034;-65
2023/10/22 05:06:16;;;;;;;1.95;0.90;;;12.10;99.90;;;;;;5102816;28;20039;-65
2023/10/22 05:08:42;;;;;;;1.40;0.80;;;12.10;99.90;;;;;;5102135;28;20031;-65
2023/10/22 05:11:17;;;;;;;3.20;1.15;;;12.20;99.90;;;;;;5098176;28;20035;-65
2023/10/22 05:13:46;;;;;;;2.00;0.93;;;12.10;99.90;;;;;;5101768;28;20080;-65
2023/10/22 05:16:12;;;;;;;1.17;0.50;;;12.40;99.90;;;;;;5101523;28;20059;-65
2023/10/22 05:18:38;;;;;;;2.03;1.02;;;12.20;99.90;;;;;;5104750;28;20065;-65
2023/10/22 05:21:06;;;;;;;1.77;0.90;;;12.20;99.90;;;;;;5101016;28;20039;-65
2023/10/22 05:23:33;;;;;;;1.40;0.90;;;12.20;99.90;;;;;;5102726;28;20484;-65
2023/10/22 05:26:16;;;;;;;1.17;1.08;;;12.20;99.90;;;;;;5116383;28;20040;-64
2023/10/22 05:28:43;;;;;;;1.13;1.00;;;12.30;99.90;;;;;;5101313;28;20036;-65
2023/10/22 05:31:20;;;;;;;1.63;1.10;;;12.30;99.90;;;;;;5107080;28;20052;-65
2023/10/22 05:33:46;;;;;;;1.65;1.02;;;12.30;99.90;;;;;;5103972;28;20045;-65
2023/10/22 05:36:19;;;;;;;2.40;0.73;;;12.40;99.90;;;;;;5100685;28;20531;-65
2023/10/22 05:38:46;;;;;;;0.63;0.52;;;12.40;99.90;;;;;;5080427;28;20501;-65
2023/10/22 05:41:23;;;;;;;2.00;0.52;;;12.40;99.90;;;;;;5103810;28;20881;-65
2023/10/22 05:43:51;;;;;;;0.80;0.30;;;12.40;99.90;;;;;;5102314;28;20035;-65
2023/10/22 05:46:17;;;;;;;0.90;0.20;;;12.40;99.90;;;;;;5098977;28;20154;-65
2023/10/22 05:48:43;;;;;;;1.75;0.20;;;12.50;99.90;;;;;;5097717;28;20039;-65
2023/10/22 05:51:08;;;;;;;0.85;0.17;;;12.50;99.90;;;;;;5103336;28;20089;-65
2023/10/22 05:53:34;;;;;;;1.27;0.20;;;12.50;99.90;;;;;;5099944;28;20070;-65
2023/10/22 05:56:00;;;;;;;0.68;0.13;;;12.50;99.90;;;;;;5100686;28;20035;-65
2023/10/22 05:58:26;;;;;;;1.83;0.45;;;12.50;99.90;;;;;;5136590;27;20489;-65
2023/10/22 06:00:53;;;;;;;1.75;0.20;;;12.40;99.90;;;;;;5105293;28;20512;-65
2023/10/22 06:03:19;;;;;;;2.38;0.30;;;12.40;99.90;;;;;;5100809;28;20374;-65
2023/10/22 06:05:45;;;;;;;5.22;0.40;;;12.40;99.90;;;;;;5104171;28;20132;-65
2023/10/22 06:08:10;;;;;;;2.75;0.30;;;12.30;99.90;;;;;;5134271;27;20084;-65
2023/10/22 06:10:43;;;;;;;4.20;0.35;;;12.30;99.90;;;;;;5102076;27;20032;-65
2023/10/22 06:13:10;;;;;;;1.55;0.35;;;12.30;99.90;;;;;;5137118;27;20041;-65
2023/10/22 06:15:36;;;;;;;4.15;0.45;;;12.20;99.90;;;;;;5105229;27;20054;-65
2023/10/22 06:18:05;;;;;;;2.10;0.20;;;12.30;99.90;;;;;;5107053;27;20043;-65
2023/10/22 06:20:33;;;;;;;4.07;0.38;;;12.10;99.90;;;;;;5102231;27;20485;-65
2023/10/22 06:22:59;;;;;;;4.82;0.50;;;12.10;99.90;;;;;;5103506;27;20374;-65
2023/10/22 06:25:25;;;;;;;4.07;0.40;;;12.10;99.90;;;;;;5119867;27;20051;-65
2023/10/22 06:27:51;;;;;;;2.92;0.45;;;12.10;99.90;;;;;;5105247;27;20036;-65
2023/10/22 06:30:24;;;;;;;2.13;0.30;;;12.10;99.90;;;;;;5138129;27;20142;-65
2023/10/22 06:32:51;;;;;;;2.05;0.32;;;12.10;99.90;;;;;;5104173;28;20055;-65
2023/10/22 06:35:17;;;;;;;1.92;0.50;;;12.10;99.90;;;;;;5106491;27;20083;-65
2023/10/22 06:37:42;;;;;;;2.10;0.35;;;12.10;99.90;;;;;;5137276;27;20082;-65
2023/10/22 06:40:08;;;;;;;2.75;0.50;;;12.10;99.90;;;;;;5105208;27;20374;-65
2023/10/22 06:42:34;;;;;;;2.22;0.30;;;12.10;99.90;;;;;;5103840;28;20040;-65
2023/10/22 06:45:00;;;;;;;2.20;0.35;;;12.00;99.90;;;;;;5107074;27;20666;-65
2023/10/22 06:47:26;;;;;;;2.90;0.22;;;12.10;99.90;;;;;;5101697;27;20027;-65
2023/10/22 06:49:52;;;;;;;4.40;0.20;;;12.00;99.90;;;;;;5103870;27;20039;-65
2023/10/22 06:52:19;;;;;;;2.97;0.30;;;12.00;99.90;;;;;;5103638;28;20036;-65
2023/10/22 06:54:45;;;;;;;1.10;0.40;;;12.00;99.90;;;;;;5101738;28;20047;-65
2023/10/22 06:57:11;;;;;;;2.03;0.32;;;12.00;99.90;;;;;;5134593;27;20490;-65
2023/10/22 06:59:37;;;;;;;3.65;0.60;;;11.90;99.90;;;;;;5102663;27;20074;-64
2023/10/22 07:02:02;;;;;;;7.55;1.00;;;11.90;99.90;;;;;;5133396;27;20042;-65
2023/10/22 07:04:28;;;;;;;2.72;0.70;;;11.90;99.90;;;;;;5103557;27;20041;-65
2023/10/22 07:06:54;;;;;;;4.15;0.80;;;11.90;99.90;;;;;;5099439;28;20065;-65
2023/10/22 07:09:20;;;;;;;4.15;1.30;;;11.80;99.90;;;;;;5103012;27;20154;-65
2023/10/22 07:11:46;;;;;;;4.68;1.63;;;11.80;99.90;;;;;;5085787;28;20039;-65
2023/10/22 07:14:12;;;;;;;5.25;1.60;;;11.80;99.90;;;;;;5101830;27;20047;-65
2023/10/22 07:16:38;;;;;;;3.63;1.42;;;11.80;99.90;;;;;;5097087;27;20039;-65
2023/10/22 07:19:04;;;;;;;5.07;1.63;;;11.80;99.90;;;;;;5101721;27;20043;-65
2023/10/22 07:21:29;;;;;;;3.95;1.92;;;11.80;99.90;;;;;;5132751;27;20715;-65
2023/10/22 07:23:55;;;;;;;5.47;1.52;;;11.80;99.90;;;;;;5103537;27;20135;-65
2023/10/22 07:26:21;;;;;;;6.28;1.90;;;11.80;99.90;;;;;;5103172;27;20043;-65
2023/10/22 07:28:49;;;;;;;6.05;1.75;;;11.80;99.90;;;;;;5117087;27;20355;-65
2023/10/22 07:31:17;;;;;;;9.50;2.83;;;11.90;99.90;;;;;;5102689;28;20038;-65
2023/10/22 07:33:43;;;;;;;6.18;2.05;;;11.90;99.90;;;;;;5101884;28;20047;-65
2023/10/22 07:36:09;;;;;;;5.82;2.28;;;11.80;99.90;;;;;;5100645;28;20040;-64
2023/10/22 07:38:37;;;;;;;4.85;2.10;;;11.90;99.90;;;;;;5103056;28;20125;-65
2023/10/22 07:41:02;;;;;;;5.95;1.60;;;11.80;99.90;;;;;;5115787;27;20682;-64
2023/10/22 07:43:29;;;;;;;7.30;2.15;;;11.80;99.90;;;;;;5101414;28;20039;-65
2023/10/22 07:46:00;;;;;;;5.68;1.40;;;11.80;99.90;;;;;;5102593;28;20063;-65
2023/10/22 07:48:26;;;;;;;6.38;1.60;;;11.80;99.90;;;;;;5103195;28;20355;-65
2023/10/22 07:50:52;;;;;;;8.07;1.80;;;11.80;99.90;;;;;;5102011;28;20058;-65
2023/10/22 07:53:17;;;;;;;4.20;1.35;;;11.90;99.90;;;;;;5129779;27;20040;-65
2023/10/22 07:55:45;;;;;;;4.22;1.58;;;11.90;99.90;;;;;;5102943;27;20550;-65
2023/10/22 07:58:11;;;;;;;5.70;1.30;;;11.90;99.90;;;;;;5101189;27;20052;-65
2023/10/22 08:00:37;;;;;;;5.07;1.25;;;11.90;99.90;;;;;;5098688;28;20043;-64
2023/10/22 08:03:03;;;;;;;3.75;0.98;;;11.90;99.90;;;;;;5100734;28;20405;-65
2023/10/22 08:05:30;;;;;;;7.18;0.88;;;12.00;99.90;;;;;;5102818;28;20042;-64
2023/10/22 08:07:55;;;;;;;6.03;1.00;;;11.90;99.90;;;;;;5132262;27;20039;-64
2023/10/22 08:10:21;;;;;;;4.22;1.95;;;12.00;99.90;;;;;;5100274;28;20436;-65
2023/10/22 08:12:46;;;;;;;8.60;1.00;;;12.10;99.90;;;;;;5104670;28;20550;-64
2023/10/22 08:15:12;;;;;;;7.65;1.10;;;12.00;99.90;;;;;;5134828;27;20129;-64
2023/10/22 08:17:38;;;;;;;5.55;0.70;;;12.10;99.90;;;;;;5132683;27;20453;-65
2023/10/22 08:20:04;;;;;;;2.67;0.73;;;12.10;99.90;;;;;;5133532;27;20032;-64
2023/10/22 08:22:29;;;;;;;5.40;1.42;;;12.10;99.90;;;;;;5101957;28;20083;-65
2023/10/22 08:24:55;;;;;;;2.72;0.73;;;12.10;99.90;;;;;;5100799;27;20073;-65
2023/10/22 08:27:21;;;;;;;5.68;0.80;;;12.10;99.90;;;;;;5100086;27;20548;-65
2023/10/22 08:29:47;;;;;;;3.38;1.10;;;12.20;99.90;;;;;;5101731;28;20096;-65
2023/10/22 08:32:12;;;;;;;4.47;0.85;;;12.40;99.90;;;;;;5101248;28;20093;-65
2023/10/22 08:34:38;;;;;;;5.35;1.00;;;12.30;99.90;;;;;;5102534;28;20063;-65
2023/10/22 08:37:04;;;;;;;3.75;0.82;;;12.40;99.90;;;;;;5101443;28;20036;-65
2023/10/22 08:39:30;;;;;;;6.15;1.23;;;12.70;99.90;;;;;;5100708;28;20052;-65
2023/10/22 08:42:07;;;;;;;4.22;1.00;;;12.50;99.90;;;;;;5102600;28;20028;-65
2023/10/22 08:44:35;;;;;;;3.47;0.95;;;12.60;99.90;;;;;;5102575;28;20071;-65
2023/10/22 08:47:01;;;;;;;5.72;0.73;;;12.60;99.90;;;;;;5102036;28;20066;-65
2023/10/22 08:49:27;;;;;;;5.30;1.45;;;12.80;99.90;;;;;;5102886;28;20032;-65
2023/10/22 08:51:52;;;;;;;4.90;1.25;;;12.70;99.90;;;;;;5101892;27;20039;-65
2023/10/22 08:54:18;;;;;;;3.95;1.45;;;12.70;99.90;;;;;;5105525;28;20085;-65
2023/10/22 08:56:44;;;;;;;4.95;1.10;;;13.00;99.90;;;;;;5102744;28;20088;-65
2023/10/22 08:59:11;;;;;;;4.70;1.13;;;12.90;99.90;;;;;;5133132;27;20036;-65
2023/10/22 09:01:37;;;;;;;12.15;2.47;;;12.90;99.90;;;;;;5101924;28;20414;-65
2023/10/22 09:04:02;;;;;;;4.13;1.58;;;12.90;99.90;;;;;;5102013;28;20063;-65
2023/10/22 09:06:28;;;;;;;6.63;0.82;;;13.00;99.90;;;;;;5130908;27;20052;-65
2023/10/22 09:08:54;;;;;;;6.82;1.35;;;13.00;99.90;;;;;;5118406;27;20034;-65
2023/10/22 09:11:20;;;;;;;4.20;0.60;;;13.10;99.90;;;;;;5103604;28;20378;-64
2023/10/22 09:13:47;;;;;;;4.50;0.88;;;13.00;99.90;;;;;;5101428;28;20390;-64
2023/10/22 09:16:29;;;;;;;6.68;0.77;;;13.00;99.90;;;;;;5104803;28;20087;-65
2023/10/22 09:18:56;;;;;;;3.00;0.65;;;12.90;99.90;;;;;;5100323;28;20051;-65
2023/10/22 09:21:21;;;;;;;2.88;0.90;;;13.00;99.90;;;;;;5103061;28;20051;-65
2023/10/22 09:24:05;;;;;;;3.40;1.13;;;12.90;99.90;;;;;;5103932;28;20028;-64
2023/10/22 09:26:47;;;;;;;4.40;0.77;;;13.00;99.90;;;;;;5103679;28;20132;-64
2023/10/22 09:29:13;;;;;;;2.67;0.70;;;13.00;99.90;;;;;;5102024;28;20048;-64
2023/10/22 09:31:51;;;;;;;6.75;0.80;;;13.00;99.90;;;;;;5099674;28;20049;-64
2023/10/22 09:34:27;;;;;;;4.05;1.00;;;13.10;99.90;;;;;;5139046;27;20130;-64
2023/10/22 09:36:54;;;;;;;2.42;0.57;;;13.10;99.90;;;;;;5099905;28;20051;-64
2023/10/22 09:39:39;;;;;;;4.35;0.65;;;13.10;99.90;;;;;;5136011;27;20131;-64
2023/10/22 09:42:07;;;;;;;5.25;0.85;;;13.20;99.90;;;;;;5104605;27;20139;-64
2023/10/22 09:44:33;;;;;;;1.98;0.80;;;13.10;99.90;;;;;;5106911;28;20079;-64
2023/10/22 09:47:01;;;;;;;3.88;1.48;;;13.20;99.90;;;;;;5104388;27;20040;-64
2023/10/22 09:49:33;;;;;;;2.72;0.75;;;13.20;99.90;;;;;;5105571;27;20038;-64
2023/10/22 09:52:02;;;;;;;1.80;0.50;;;13.30;99.90;;;;;;5100529;28;20047;-64
2023/10/22 09:54:37;;;;;;;1.90;0.70;;;13.40;99.90;;;;;;5102416;27;20106;-64
2023/10/22 09:57:13;;;;;;;2.00;0.53;;;13.50;99.90;;;;;;5134215;27;20067;-64
2023/10/22 09:59:44;;;;;;;6.22;0.60;;;13.60;99.90;;;;;;5104481;27;20289;-64
2023/10/22 10:02:17;;;;;;;2.75;0.60;;;13.80;99.90;;;;;;5100889;27;20076;-64
2023/10/22 10:04:43;;;;;;;2.20;0.50;;;13.90;99.90;;;;;;5103623;27;20481;-64
2023/10/22 10:07:10;;;;;;;5.22;1.08;;;13.80;99.90;;;;;;5103675;27;20042;-64
2023/10/22 10:09:36;;;;;;;2.67;0.40;;;13.90;99.90;;;;;;5102886;27;20090;-65
2023/10/22 10:12:05;;;;;;;0.88;0.22;;;13.90;99.90;;;;;;5135423;27;20043;-65
2023/10/22 10:14:42;;;;;;;2.05;0.32;;;13.90;99.90;;;;;;5101767;27;20116;-65
2023/10/22 10:17:10;;;;;;;4.40;0.40;;;13.80;99.90;;;;;;5101569;27;20057;-64
2023/10/22 10:19:36;;;;;;;2.05;0.22;;;13.80;99.90;;;;;;5132062;27;20048;-64
2023/10/22 10:22:01;;;;;;;1.70;0.40;;;13.70;99.90;;;;;;5100422;27;20704;-64
2023/10/22 10:24:28;;;;;;;2.50;0.30;;;13.80;99.90;;;;;;5129612;27;20043;-64
2023/10/22 10:26:57;;;;;;;3.70;0.32;;;13.80;99.90;;;;;;5099816;27;20036;-64
2023/10/22 10:29:23;;;;;;;2.17;0.50;;;13.80;99.90;;;;;;5117389;27;20505;-64
2023/10/22 10:31:51;;;;;;;1.13;0.30;;;13.70;99.90;;;;;;5101736;27;20605;-64
2023/10/22 10:34:43;;;;;;;2.13;0.32;;;13.70;99.90;;;;;;5134854;27;20039;-64
2023/10/22 10:37:19;;;;;;;3.10;0.43;;;13.70;99.90;;;;;;5104170;27;21008;-64
2023/10/22 10:39:49;;;;;;;1.05;0.20;;;13.60;99.90;;;;;;5100702;28;20040;-64
2023/10/22 10:42:36;;;;;;;3.92;0.30;;;13.60;99.90;;;;;;5103347;28;20040;-64
2023/10/22 10:45:04;;;;;;;1.88;0.22;;;13.60;99.90;;;;;;5125247;27;20055;-64
2023/10/22 10:47:32;;;;;;;2.33;0.30;;;13.50;99.90;;;;;;5104069;27;20528;-64
2023/10/22 10:49:59;;;;;;;2.15;0.63;;;13.40;99.90;;;;;;5104168;28;20374;-64
2023/10/22 10:52:26;;;;;;;3.72;0.30;;;13.40;99.90;;;;;;5134237;27;20060;-64
2023/10/22 10:55:08;;;;;;;5.38;1.25;;;13.60;99.90;;;;;;5108599;27;20397;-64
2023/10/22 10:57:46;;;;;;;6.45;0.30;;;13.90;99.90;;;;;;5104395;28;20036;-64
2023/10/22 11:00:19;;;;;;;3.60;0.40;;;14.30;99.90;;;;;;5103771;27;20248;-64
2023/10/22 11:02:49;;;;;;;1.58;0.45;;;14.60;99.90;;;;;;5104233;28;20039;-64
2023/10/22 11:05:16;;;;;;;5.50;0.85;;;14.80;99.90;;;;;;5103439;28;20086;-64
2023/10/22 11:07:46;;;;;;;1.77;0.55;;;15.00;99.90;;;;;;5106046;28;20195;-64
2023/10/22 11:10:16;;;;;;;4.55;0.80;;;14.90;99.90;;;;;;5102012;28;20047;-64
2023/10/22 11:12:43;;;;;;;3.67;1.27;;;14.80;99.90;;;;;;5104633;28;20405;-64
2023/10/22 11:15:11;;;;;;;3.20;0.60;;;14.70;99.90;;;;;;5105163;28;20510;-64
2023/10/22 11:17:41;;;;;;;3.63;0.68;;;14.50;99.90;;;;;;5103152;28;20091;-64
2023/10/22 11:20:08;;;;;;;4.05;0.60;;;14.50;99.90;;;;;;5104272;28;20104;-64
2023/10/22 11:22:35;;;;;;;2.83;0.77;;;14.70;99.90;;;;;;5135304;27;20047;-64
2023/10/22 11:25:03;;;;;;;2.25;0.95;;;15.10;99.90;;;;;;5104932;28;20050;-64
2023/10/22 11:27:31;;;;;;;2.55;0.90;;;15.20;99.90;;;;;;5104429;28;20039;-64
2023/10/22 11:29:57;;;;;;;4.25;0.63;;;15.80;99.90;;;;;;5100672;28;20129;-64
2023/10/22 11:32:22;;;;;;;2.50;1.15;;;15.80;99.90;;;;;;5136355;27;20130;-65
2023/10/22 11:34:52;;;;;;;2.05;0.47;;;16.00;99.90;;;;;;5101710;28;20638;-65
2023/10/22 11:37:19;;;;;;;0.82;0.40;;;16.00;99.90;;;;;;5084192;28;20035;-64
2023/10/22 11:39:45;;;;;;;1.50;0.60;;;16.10;99.90;;;;;;5101677;28;20040;-64
2023/10/22 11:42:11;;;;;;;3.45;0.50;;;16.10;99.90;;;;;;5104545;28;20086;-64
2023/10/22 11:44:37;;;;;;;1.92;0.43;;;16.00;99.90;;;;;;5103131;28;20055;-64
2023/10/22 11:47:30;;;;;;;2.35;0.40;;;15.80;99.90;;;;;;5100633;28;20052;-64
2023/10/22 11:49:58;;;;;;;2.72;0.47;;;15.80;99.90;;;;;;5104724;28;20063;-64
2023/10/22 11:52:37;;;;;;;1.77;0.43;;;15.70;99.90;;;;;;5104936;27;20048;-64
2023/10/22 11:55:07;;;;;;;6.70;0.50;;;15.80;99.90;;;;;;5088082;28;20043;-64
2023/10/22 11:57:37;;;;;;;3.03;0.40;;;15.90;99.90;;;;;;5103490;28;20481;-64
2023/10/22 12:00:07;;;;;;;2.42;0.50;;;16.10;99.90;;;;;;5119636;27;20040;-64
2023/10/22 12:02:32;;;;;;;3.92;0.50;;;16.10;99.90;;;;;;5104406;27;20122;-64
2023/10/22 12:04:58;;;;;;;1.67;0.38;;;16.10;99.90;;;;;;5090858;28;20123;-64
2023/10/22 12:07:24;;;;;;;1.30;0.30;;;16.20;99.90;;;;;;5105626;28;20051;-64
2023/10/22 12:09:49;;;;;;;2.15;0.85;;;16.30;99.90;;;;;;5131347;27;20035;-64
2023/10/22 12:12:15;;;;;;;2.03;0.38;;;16.50;99.90;;;;;;5104773;28;20509;-64
2023/10/22 12:14:42;;;;;;;1.17;0.35;;;16.40;99.90;;;;;;5104971;27;20040;-64
2023/10/22 12:17:08;;;;;;;2.55;0.40;;;16.30;99.90;;;;;;5116920;27;20393;-64
2023/10/22 12:19:34;;;;;;;2.38;0.30;;;16.20;99.90;;;;;;5104934;28;20051;-64
2023/10/22 12:22:00;;;;;;;1.48;0.28;;;16.00;99.90;;;;;;5104679;28;20071;-64
2023/10/22 12:24:26;;;;;;;1.42;0.30;;;15.90;99.90;;;;;;5106803;27;20070;-64
2023/10/22 12:26:51;;;;;;;2.53;0.40;;;15.90;99.90;;;;;;5099354;28;20052;-64
2023/10/22 12:29:17;;;;;;;2.20;0.50;;;15.80;99.90;;;;;;5102543;27;20031;-64
2023/10/22 12:31:43;;;;;;;2.92;0.55;;;15.70;99.90;;;;;;5103028;28;20035;-64
2023/10/22 12:34:08;;;;;;;2.25;0.22;;;15.60;99.90;;;;;;5100534;28;20063;-64
2023/10/22 12:36:34;;;;;;;1.98;0.30;;;15.40;99.90;;;;;;5102980;28;20082;-64
2023/10/22 12:39:00;;;;;;;1.25;0.30;;;15.50;99.90;;;;;;5117141;27;20055;-64
2023/10/22 12:41:26;;;;;;;4.43;0.60;;;15.30;99.90;;;;;;5102521;28;20071;-64
2023/10/22 12:43:52;;;;;;;3.10;0.63;;;15.20;99.90;;;;;;5106757;28;20489;-64
2023/10/22 12:46:18;;;;;;;4.97;0.30;;;15.20;99.90;;;;;;5103817;28;20071;-64
2023/10/22 12:48:44;;;;;;;1.70;0.30;;;15.30;99.90;;;;;;5134448;27;20539;-64